Time;durP1;ratioP1;P1;durP2;ratioP2;P2;SDS_P1;SDS_P2;PMS_P1;PMS_P2;Temp;Humidity;BMP_temperature;BMP_pressure;BME280_temperature;BME280_humidity;BME280_pressure;Samples;Min_cycle;Max_cycle;Signal;HPM_P1;HPM_P2
2022/02/10 00:15:46;;;;;;;39.67;18.52;;;;;;;4.73;71.08;97899.14;1658945;86;25792;-81
2022/02/10 00:20:46;;;;;;;46.70;20.23;;;;;;;4.76;71.10;97903.34;1677453;85;25831;-81
2022/02/10 00:34:26;;;;;;;46.37;22.48;;;;;;;4.77;71.16;97906.35;1657156;86;25886;-81
2022/02/10 00:36:58;;;;;;;31.02;15.95;;;;;;;4.74;71.13;97908.00;1656380;86;25857;-81
2022/02/10 00:39:54;;;;;;;27.50;13.25;;;;;;;4.72;71.07;97904.16;1656865;85;25725;-81
2022/02/10 00:42:02;;;;;;;22.13;12.25;;;;;;;4.73;71.21;97919.70;1670567;85;25790;-81
2022/02/10 00:44:29;;;;;;;30.40;16.62;;;;;;;4.67;71.18;97902.48;1670217;85;27563;-82
2022/02/10 00:46:55;;;;;;;45.85;20.23;;;;;;;4.65;71.18;97901.80;1641017;86;25808;-81
2022/02/10 00:49:22;;;;;;;28.77;14.87;;;;;;;4.65;71.25;97905.31;1659419;86;25747;-81
2022/02/10 00:51:49;;;;;;;17.80;10.90;;;;;;;4.65;71.19;97907.98;1658551;86;26509;-81
2022/02/10 00:54:22;;;;;;;18.73;10.95;;;;;;;4.62;71.17;97912.31;1659813;86;25781;-81
2022/02/10 00:56:46;;;;;;;20.48;10.28;;;;;;;4.61;71.13;97907.97;1657920;86;28618;-81
2022/02/10 00:59:33;;;;;;;13.08;9.50;;;;;;;4.61;71.17;97905.29;1658085;86;26009;-81
2022/02/10 01:31:52;;;;;;;23.22;12.73;;;;;;;4.46;71.20;97884.20;1657483;86;25787;-81
2022/02/10 01:34:18;;;;;;;14.78;9.33;;;;;;;4.44;71.20;97879.52;1656780;86;25684;-81
2022/02/10 01:36:45;;;;;;;12.23;8.83;;;;;;;4.44;71.25;97875.50;1656564;86;27468;-81
2022/02/10 01:39:12;;;;;;;10.70;7.17;;;;;;;4.46;71.28;97874.84;1656630;86;25983;-81
2022/02/10 02:03:54;;;;;;;14.95;10.82;;;;;;;4.40;71.40;97835.38;1656609;86;26922;-81
2022/02/10 02:06:29;;;;;;;13.53;9.00;;;;;;;4.42;71.36;97836.06;1656673;85;26368;-81
2022/02/10 02:08:50;;;;;;;17.12;8.83;;;;;;;4.42;71.30;97830.72;1655141;86;25847;-82
2022/02/10 02:11:17;;;;;;;18.25;9.00;;;;;;;4.42;71.25;97841.41;1656700;86;25800;-83
2022/02/10 02:13:44;;;;;;;15.83;8.70;;;;;;;4.41;71.27;97841.06;1657618;86;25708;-82
2022/02/10 02:16:10;;;;;;;23.25;11.12;;;;;;;4.41;71.29;97846.41;1662069;86;27399;-82
2022/02/10 02:18:37;;;;;;;18.65;11.40;;;;;;;4.41;71.32;97843.74;1661994;86;26174;-83
2022/02/10 02:21:03;;;;;;;9.58;7.35;;;;;;;4.42;71.30;97845.92;1662255;85;25738;-83
2022/02/10 02:23:30;;;;;;;20.97;15.18;;;;;;;4.40;71.26;97839.39;1662198;86;25804;-82
2022/02/10 02:26:05;;;;;;;27.65;14.33;;;;;;;4.37;71.25;97843.72;1662224;86;25718;-83
2022/02/10 02:28:27;;;;;;;25.45;11.22;;;;;;;4.37;71.28;97844.22;1661641;85;28414;-82
2022/02/10 02:31:00;;;;;;;36.42;14.70;;;;;;;4.38;71.32;97848.06;1658931;86;25897;-82
2022/02/10 02:33:55;;;;;;;17.12;9.88;;;;;;;4.37;71.29;97847.72;1655609;86;25721;-82
2022/02/10 03:08:51;;;;;;;8.95;6.67;;;;;;;4.29;71.26;97841.02;1634984;87;28303;-82
2022/02/10 03:11:16;;;;;;;10.15;6.20;;;;;;;4.29;71.28;97846.38;1634873;87;25710;-83
2022/02/10 03:13:58;;;;;;;9.63;6.90;;;;;;;4.24;71.25;97847.34;1635153;87;25275;-82
2022/02/10 04:07:32;;;;;;;8.55;6.17;;;;;;;4.08;71.64;97825.92;1635091;87;25757;-82
2022/02/10 04:15:35;;;;;;;;;;;;;;;4.03;71.71;97822.88;1637457;87;27454;-82
2022/02/10 04:18:35;;;;;;;8.63;6.80;;;;;;;4.00;71.71;97820.02;1622013;87;25775;-82
2022/02/10 04:25:38;;;;;;;12.85;7.97;;;;;;;3.91;71.89;97827.16;1635283;87;25802;-82
2022/02/10 04:30:32;;;;;;;18.85;9.10;;;;;;;3.92;71.94;97825.33;1635071;87;25817;-82
2022/02/10 04:39:30;;;;;;;18.90;9.85;;;;;;;3.89;72.03;97814.47;1635208;87;25547;-82
2022/02/10 04:43:58;;;;;;;19.98;10.20;;;;;;;3.88;72.04;97820.80;1635011;87;25719;-82
2022/02/10 05:02:43;;;;;;;26.37;14.33;;;;;;;3.73;72.35;97814.89;1635104;87;26621;-82
2022/02/10 05:19:08;;;;;;;20.85;12.15;;;;;;;3.64;72.55;97783.29;1652411;86;25843;-80
2022/02/10 05:33:56;;;;;;;27.13;15.83;;;;;;;3.61;72.57;97786.30;1625343;88;28238;-82
2022/02/10 05:36:21;;;;;;;28.85;16.70;;;;;;;3.61;72.62;97783.63;1633313;86;25793;-81
2022/02/10 05:39:02;;;;;;;28.02;16.62;;;;;;;3.59;72.69;97797.13;1634156;87;25736;-81
2022/02/10 05:46:46;;;;;;;31.00;18.80;;;;;;;3.53;72.68;97791.57;1634365;87;28493;-81
2022/02/10 05:49:39;;;;;;;35.10;19.85;;;;;;;3.46;72.80;97786.53;1631014;87;26192;-81
2022/02/10 05:52:06;;;;;;;36.00;20.30;;;;;;;3.43;72.96;97782.84;1630991;87;25835;-81
2022/02/10 05:56:59;;;;;;;37.98;21.27;;;;;;;3.46;73.05;97794.55;1616354;87;25759;-80
2022/02/10 05:59:56;;;;;;;41.33;22.35;;;;;;;3.48;73.14;97787.22;1632112;87;28295;-82
2022/02/10 06:51:01;;;;;;;56.63;31.55;;;;;;;3.61;73.37;97791.64;1662262;86;25294;-81
2022/02/10 07:06:16;;;;;;;35.48;17.42;;;;;;;3.83;73.20;97785.74;1662074;86;28363;-82
2022/02/10 07:08:54;;;;;;;37.75;20.48;;;;;;;3.88;73.20;97793.25;1661077;85;25634;-81
2022/02/10 07:16:38;;;;;;;37.23;19.87;;;;;;;3.98;73.07;97789.45;1662156;85;26229;-81
2022/02/10 07:48:44;;;;;;;50.15;27.95;;;;;;;4.69;72.28;97770.30;1662100;86;25767;-82
2022/02/10 07:56:25;;;;;;;31.73;18.25;;;;;;;4.84;72.10;97769.61;1662102;86;25761;-82
2022/02/10 09:03:47;;;;;;;38.60;22.15;;;;;;;6.09;69.50;97751.15;1662652;86;25759;-82
2022/02/10 09:06:16;;;;;;;17.70;11.22;;;;;;;6.13;69.41;97749.30;1661492;85;27546;-81
2022/02/10 09:11:45;;;;;;;16.82;10.80;;;;;;;6.19;69.09;97752.27;1660730;85;25771;-82
2022/02/10 10:00:32;;;;;;;19.52;9.78;;;;;;;6.71;67.19;97730.50;1655078;86;27410;-82
2022/02/10 10:03:18;;;;;;;11.90;7.67;;;;;;;6.76;67.10;97724.60;1661864;85;25755;-82
2022/02/10 10:05:44;;;;;;;10.32;6.75;;;;;;;6.83;66.95;97718.83;1664198;85;25691;-82
2022/02/10 10:08:26;;;;;;;9.28;6.87;;;;;;;6.86;66.93;97716.63;1668042;85;25840;-81
2022/02/10 10:18:49;;;;;;;13.85;7.35;;;;;;;6.98;66.45;97712.17;1672456;85;25835;-81
2022/02/10 10:26:40;;;;;;;9.73;6.62;;;;;;;7.11;66.24;97696.28;1672511;85;27496;-82
2022/02/10 10:57:17;;;;;;;12.40;6.87;;;;;;;7.74;64.69;97629.91;1672439;85;25846;-81
2022/02/10 11:00:24;;;;;;;11.83;6.67;;;;;;;7.81;64.56;97625.47;1672234;85;25717;-82
2022/02/10 11:23:14;;;;;;;9.68;6.22;;;;;;;8.30;63.40;97598.70;1663100;86;27459;-81
2022/02/10 11:59:57;;;;;;;12.80;7.00;;;;;;;9.05;62.11;97523.23;1635881;87;28431;-81
2022/02/10 12:36:28;;;;;;;4.90;3.58;;;;;;;10.34;59.17;97440.41;1634937;87;25992;-83
2022/02/10 13:02:36;;;;;;;2.80;2.50;;;;;;;10.38;59.01;97418.20;1657208;86;25714;-83
2022/02/10 13:26:54;;;;;;;4.08;2.98;;;;;;;13.58;52.96;97363.85;1662544;86;25241;-82
2022/02/10 14:12:58;;;;;;;6.17;3.17;;;;;;;14.30;49.85;97354.53;1661962;86;26299;-83
2022/02/10 14:18:07;;;;;;;12.53;8.23;;;;;;;14.46;49.69;97358.98;1662213;86;27464;-85
2022/02/10 14:20:52;;;;;;;4.03;2.92;;;;;;;14.49;49.46;97359.32;1660386;85;26284;-83
2022/02/10 14:25:45;;;;;;;7.25;4.72;;;;;;;14.52;49.06;97360.74;1662242;86;25881;-83
2022/02/10 14:28:04;;;;;;;8.25;5.40;;;;;;;14.61;49.08;97350.63;1658180;85;25836;-82
2022/02/10 14:30:33;;;;;;;7.45;3.75;;;;;;;14.72;49.09;97360.69;1658329;86;26332;-83
2022/02/10 14:33:00;;;;;;;7.37;3.95;;;;;;;14.72;48.61;97355.25;1656864;86;25867;-83
2022/02/10 14:35:44;;;;;;;3.92;2.98;;;;;;;14.64;48.84;97356.95;1656731;86;27372;-83
2022/02/10 15:10:42;;;;;;;12.15;6.30;;;;;;;14.27;48.15;97356.87;1658116;86;25769;-83
2022/02/10 15:32:59;;;;;;;9.68;6.87;;;;;;;11.24;50.66;97318.47;1657678;86;26021;-81
2022/02/10 15:56:48;;;;;;;14.10;7.22;;;;;;;9.69;52.47;97302.67;1656111;86;27449;-83
2022/02/10 16:16:06;;;;;;;20.52;10.68;;;;;;;8.77;53.83;97299.88;1656634;86;25778;-82
2022/02/10 16:17:50;;;;;;;21.42;11.40;;;;;;;8.71;54.29;97303.36;1652837;86;25779;-81
2022/02/10 16:20:22;;;;;;;53.00;23.22;;;;;;;8.60;54.22;97303.94;1656060;85;25763;-81
2022/02/10 16:23:03;;;;;;;52.88;23.83;;;;;;;8.36;54.61;97306.63;1658538;86;28136;-81
2022/02/10 16:25:33;;;;;;;49.55;21.52;;;;;;;8.34;55.02;97309.20;1656667;85;25842;-81
2022/02/10 16:29:03;;;;;;;43.55;19.77;;;;;;;8.24;55.13;97310.37;1656849;86;25732;-81
2022/02/10 16:30:40;;;;;;;29.18;15.63;;;;;;;8.17;55.19;97305.48;1647159;86;26534;-82
2022/02/10 16:33:06;;;;;;;28.32;14.70;;;;;;;8.12;55.45;97298.52;1656830;85;25739;-81
2022/02/10 16:35:33;;;;;;;22.42;12.80;;;;;;;8.04;55.55;97296.00;1656717;86;28251;-80
2022/02/10 16:38:00;;;;;;;23.73;14.35;;;;;;;7.98;55.67;97291.39;1656603;86;25740;-81
2022/02/10 16:40:27;;;;;;;22.62;14.18;;;;;;;7.99;55.80;97293.05;1656715;86;25321;-80
2022/02/10 16:42:54;;;;;;;23.83;14.13;;;;;;;7.98;55.78;97279.30;1655876;86;26245;-81
2022/02/10 16:45:21;;;;;;;37.28;17.15;;;;;;;7.94;55.93;97280.74;1658256;86;25739;-81
2022/02/10 16:47:48;;;;;;;26.77;14.58;;;;;;;7.94;56.08;97282.09;1631865;86;27466;-83
2022/02/10 16:50:15;;;;;;;22.10;12.50;;;;;;;7.95;56.17;97281.89;1657183;85;25763;-82
2022/02/10 16:52:48;;;;;;;22.25;13.72;;;;;;;7.91;56.12;97271.73;1656730;86;25763;-82
2022/02/10 16:55:32;;;;;;;22.45;13.35;;;;;;;7.87;56.23;97261.05;1656166;86;25816;-82
2022/02/10 17:05:48;;;;;;;34.27;17.12;;;;;;;7.80;56.61;97250.78;1656720;86;26398;-82
2022/02/10 17:27:11;;;;;;;236.77;88.33;;;;;;;7.34;57.49;97262.03;1661272;85;28043;-81
2022/02/10 17:30:20;;;;;;;103.80;36.73;;;;;;;7.29;57.60;97279.23;1664138;85;25851;-81
2022/02/10 17:32:32;;;;;;;81.08;32.78;;;;;;;7.18;57.52;97268.50;1660981;86;26265;-80
2022/02/10 17:43:17;;;;;;;113.40;36.80;;;;;;;7.01;58.25;97259.55;1658237;86;25762;-81
2022/02/10 17:53:05;;;;;;;46.60;23.50;;;;;;;6.93;58.60;97265.06;1664514;86;27257;-81
2022/02/10 17:55:32;;;;;;;48.02;25.05;;;;;;;6.90;58.71;97264.09;1664383;86;26385;-82
2022/02/10 17:57:59;;;;;;;50.30;23.85;;;;;;;6.88;58.83;97270.19;1664472;86;25802;-82
2022/02/10 18:00:26;;;;;;;47.30;23.27;;;;;;;6.84;58.92;97260.34;1658690;86;25730;-82
2022/02/10 18:02:59;;;;;;;44.98;22.67;;;;;;;6.79;59.03;97263.59;1660163;86;25807;-83
2022/02/10 18:07:58;;;;;;;96.92;37.10;;;;;;;6.65;59.16;97259.10;1648455;86;25799;-82
2022/02/10 18:13:23;;;;;;;77.30;32.63;;;;;;;6.47;59.50;97258.20;1656840;86;25772;-82
2022/02/10 18:15:43;;;;;;;65.25;27.77;;;;;;;6.45;59.81;97254.04;1654500;86;25755;-81
2022/02/10 18:18:16;;;;;;;109.95;35.15;;;;;;;6.42;59.84;97257.09;1656069;86;27572;-82
2022/02/10 18:20:39;;;;;;;90.28;33.00;;;;;;;6.37;59.98;97262.20;1655282;86;25669;-81
2022/02/10 18:23:10;;;;;;;105.65;36.93;;;;;;;6.31;60.02;97261.60;1656072;86;25823;-81
2022/02/10 18:25:57;;;;;;;114.95;38.25;;;;;;;6.10;60.03;97254.34;1655726;86;25757;-81
2022/02/10 18:33:32;;;;;;;64.55;27.62;;;;;;;5.63;60.73;97246.16;1656198;86;25677;-82
2022/02/10 19:06:19;;;;;;;78.33;39.60;;;;;;;5.14;62.93;97291.81;1656611;86;25861;-80
2022/02/10 19:08:25;;;;;;;78.85;38.83;;;;;;;5.14;63.03;97285.95;1653630;86;25747;-81
2022/02/10 19:10:55;;;;;;;58.35;29.52;;;;;;;5.18;62.97;97283.25;1661442;85;27517;-81
2022/02/10 19:13:19;;;;;;;45.00;24.60;;;;;;;5.15;62.94;97283.61;1658922;86;26395;-81
2022/02/10 19:15:46;;;;;;;49.42;24.75;;;;;;;5.17;63.17;97286.94;1659671;86;25795;-82
2022/02/10 19:18:13;;;;;;;34.63;18.50;;;;;;;5.25;63.26;97289.53;1659663;86;25742;-83
2022/02/10 19:20:40;;;;;;;24.47;13.48;;;;;;;5.34;63.23;97294.30;1660231;86;26321;-83
2022/02/10 19:23:08;;;;;;;29.25;14.58;;;;;;;5.46;63.15;97288.83;1658553;86;27396;-83
2022/02/10 19:25:37;;;;;;;42.62;20.95;;;;;;;5.57;63.16;97288.89;1659230;86;25708;-82
2022/02/10 19:28:06;;;;;;;35.00;18.52;;;;;;;5.64;63.14;97280.47;1660246;85;25756;-82
2022/02/10 19:30:36;;;;;;;31.00;16.73;;;;;;;5.69;63.12;97291.45;1659457;86;25720;-81
2022/02/10 19:33:03;;;;;;;21.25;13.08;;;;;;;5.71;63.05;97284.89;1658905;86;25808;-83
2022/02/10 19:35:33;;;;;;;23.42;12.28;;;;;;;5.76;63.08;97287.03;1659214;86;28228;-82
2022/02/10 19:38:03;;;;;;;22.15;11.40;;;;;;;5.84;63.09;97292.30;1659113;86;25713;-82
2022/02/10 19:40:35;;;;;;;25.62;14.83;;;;;;;5.91;63.03;97289.76;1659691;86;25776;-81
2022/02/10 19:43:01;;;;;;;26.87;14.70;;;;;;;5.93;63.01;97287.19;1659851;85;35280;-82
2022/02/10 19:45:28;;;;;;;26.73;14.33;;;;;;;5.95;63.01;97291.86;1659743;86;25295;-81
2022/02/10 19:47:55;;;;;;;34.75;18.90;;;;;;;5.95;62.94;97291.86;1660366;85;27380;-82
2022/02/10 19:50:27;;;;;;;27.07;15.53;;;;;;;5.90;62.92;97300.98;1661006;86;25925;-82
2022/02/10 19:52:53;;;;;;;29.18;14.85;;;;;;;5.91;62.90;97295.95;1636240;86;37767;-82
2022/02/10 19:55:22;;;;;;;24.43;13.93;;;;;;;5.94;62.97;97287.52;1660432;85;25960;-83
2022/02/10 19:57:55;;;;;;;42.17;22.82;;;;;;;5.98;62.88;97287.98;1657467;86;25839;-82
2022/02/10 20:00:26;;;;;;;27.98;15.48;;;;;;;6.04;62.95;97298.78;1657261;86;27509;-83
2022/02/10 20:02:50;;;;;;;25.57;13.38;;;;;;;6.07;63.00;97291.72;1659508;86;25767;-82
2022/02/10 20:05:21;;;;;;;31.27;15.53;;;;;;;6.09;62.97;97287.01;1660334;85;25859;-82
2022/02/10 20:07:51;;;;;;;34.25;18.12;;;;;;;6.10;62.89;97279.30;1659267;86;25908;-82
2022/02/10 20:10:14;;;;;;;44.18;22.15;;;;;;;6.08;62.87;97286.69;1656205;86;25783;-84
2022/02/10 20:12:40;;;;;;;22.90;12.53;;;;;;;6.09;62.94;97290.20;1656755;86;27230;-84
2022/02/10 20:15:10;;;;;;;16.90;9.28;;;;;;;6.03;62.78;97287.77;1656444;86;25722;-82
2022/02/10 20:17:36;;;;;;;14.60;7.53;;;;;;;6.08;62.86;97284.00;1656652;86;25787;-83
2022/02/10 20:20:04;;;;;;;25.37;11.22;;;;;;;6.21;62.81;97279.33;1657478;86;25785;-82
2022/02/10 20:22:35;;;;;;;26.57;12.18;;;;;;;6.31;62.72;97284.39;1656864;86;25756;-82
2022/02/10 20:25:00;;;;;;;30.32;13.30;;;;;;;6.37;62.65;97293.03;1656176;86;27444;-82
2022/02/10 20:27:26;;;;;;;25.35;12.03;;;;;;;6.43;62.57;97289.59;1656711;86;26025;-82
2022/02/10 20:29:54;;;;;;;26.02;12.60;;;;;;;6.48;62.46;97289.88;1656800;86;25816;-82
2022/02/10 20:32:20;;;;;;;24.43;13.20;;;;;;;6.52;62.39;97292.48;1657493;86;25831;-82
2022/02/10 20:34:47;;;;;;;24.18;12.20;;;;;;;6.56;62.32;97284.38;1656753;86;26440;-82
2022/02/10 20:37:14;;;;;;;18.82;11.10;;;;;;;6.57;62.20;97283.37;1656686;86;27891;-82
2022/02/10 20:39:41;;;;;;;18.42;9.73;;;;;;;6.57;62.20;97287.39;1656532;86;25811;-82
2022/02/10 20:42:14;;;;;;;20.05;10.80;;;;;;;6.58;62.12;97286.38;1656723;86;25814;-82
2022/02/10 20:44:37;;;;;;;19.30;10.93;;;;;;;6.60;62.12;97287.53;1655861;86;25772;-82
2022/02/10 20:47:04;;;;;;;18.87;11.57;;;;;;;6.61;62.09;97281.98;1651454;86;25766;-82
2022/02/10 20:49:31;;;;;;;22.35;11.75;;;;;;;6.63;62.02;97287.98;1657033;86;28207;-82
2022/02/10 20:51:58;;;;;;;21.17;11.60;;;;;;;6.63;62.02;97282.63;1660223;85;25663;-83
2022/02/10 20:54:26;;;;;;;20.80;12.58;;;;;;;6.66;62.05;97282.73;1657473;86;25823;-83
2022/02/10 20:56:54;;;;;;;24.12;12.68;;;;;;;6.66;62.02;97284.91;1657565;86;25711;-82
2022/02/10 20:59:35;;;;;;;22.25;12.73;;;;;;;6.68;62.01;97277.50;1658766;86;25700;-82
2022/02/10 21:02:05;;;;;;;17.85;10.50;;;;;;;6.69;62.02;97285.88;1656003;86;27492;-82
2022/02/10 21:04:31;;;;;;;22.10;13.50;;;;;;;6.71;62.00;97278.47;1655740;86;25763;-82
2022/02/10 21:07:02;;;;;;;25.57;14.80;;;;;;;6.73;62.03;97280.46;1656438;86;25792;-82
2022/02/10 21:09:39;;;;;;;20.40;11.95;;;;;;;6.75;62.03;97285.13;1655686;86;26494;-82
2022/02/10 21:12:03;;;;;;;26.55;13.70;;;;;;;6.76;62.00;97285.42;1655847;86;25776;-82
2022/02/10 21:14:29;;;;;;;21.45;12.78;;;;;;;6.78;62.00;97283.89;1656644;86;28269;-83
2022/02/10 21:16:58;;;;;;;33.45;16.23;;;;;;;6.78;61.95;97281.21;1657925;84;25924;-82
2022/02/10 21:19:25;;;;;;;22.07;12.60;;;;;;;6.79;61.94;97274.31;1656593;86;25842;-82
2022/02/10 21:21:52;;;;;;;29.45;13.93;;;;;;;6.78;61.92;97284.73;1657219;86;26566;-82
2022/02/10 21:24:25;;;;;;;20.37;11.95;;;;;;;6.79;61.96;97281.03;1656615;86;25790;-82
2022/02/10 21:29:32;;;;;;;29.67;14.83;;;;;;;6.84;61.95;97283.15;1656654;86;26399;-82
2022/02/10 21:31:59;;;;;;;26.25;13.28;;;;;;;6.85;61.94;97285.64;1656825;86;26284;-82
2022/02/10 21:34:30;;;;;;;21.10;11.05;;;;;;;6.85;61.91;97277.59;1656834;85;26716;-82
2022/02/10 21:37:07;;;;;;;20.77;11.55;;;;;;;6.86;61.91;97283.28;1656987;86;25760;-82
2022/02/10 21:39:59;;;;;;;18.70;10.60;;;;;;;6.84;61.87;97282.64;1656433;86;28259;-89
2022/02/10 21:56:17;;;;;;;23.05;12.45;;;;;;;6.83;61.95;97274.27;1656713;86;25852;-81
2022/02/10 22:19:07;;;;;;;14.28;9.58;;;;;;;6.73;62.09;97279.63;1656709;86;27510;-82
2022/02/10 22:21:33;;;;;;;15.25;10.08;;;;;;;6.73;62.07;97284.99;1656436;86;25611;-81
2022/02/10 22:23:59;;;;;;;16.70;10.53;;;;;;;6.70;62.07;97282.17;1657382;85;25679;-81
2022/02/10 22:26:30;;;;;;;19.70;12.18;;;;;;;6.69;62.07;97289.90;1657170;86;25784;-81
2022/02/10 22:29:01;;;;;;;18.77;11.63;;;;;;;6.69;62.09;97292.58;1656884;86;25815;-82
2022/02/10 22:34:21;;;;;;;18.60;11.03;;;;;;;6.72;62.04;97281.48;1679604;85;26076;-83
2022/02/10 22:36:42;;;;;;;17.80;10.98;;;;;;;6.74;62.02;97286.66;1662903;85;25759;-82
2022/02/10 22:39:10;;;;;;;22.17;11.95;;;;;;;6.75;62.00;97279.77;1660089;86;26500;-83
2022/02/10 22:41:36;;;;;;;19.50;10.88;;;;;;;6.78;61.95;97282.05;1659542;86;25810;-83
2022/02/10 22:44:05;;;;;;;17.50;11.05;;;;;;;6.79;61.92;97289.58;1659478;86;27429;-83
2022/02/10 22:46:34;;;;;;;18.30;9.98;;;;;;;6.79;61.88;97282.37;1660080;86;25310;-82
2022/02/10 22:49:01;;;;;;;21.40;10.90;;;;;;;6.82;61.81;97289.21;1659552;86;25700;-82
2022/02/10 22:51:30;;;;;;;17.73;10.25;;;;;;;6.82;61.81;97277.97;1660223;86;25805;-82
2022/02/10 22:53:57;;;;;;;22.13;11.85;;;;;;;6.81;61.79;97278.98;1660221;86;25731;-82
2022/02/10 22:56:28;;;;;;;20.82;10.05;;;;;;;6.79;61.79;97286.39;1659486;86;28269;-82
2022/02/10 22:58:57;;;;;;;18.15;10.18;;;;;;;6.77;61.83;97287.09;1656941;86;25751;-82
2022/02/10 23:01:25;;;;;;;17.50;10.28;;;;;;;6.75;61.83;97295.86;1658477;84;25780;-84
2022/02/10 23:03:52;;;;;;;19.92;9.63;;;;;;;6.74;61.86;97296.88;1657958;86;25819;-83
2022/02/10 23:06:18;;;;;;;17.12;10.25;;;;;;;6.74;61.90;97294.20;1657337;86;25353;-83
2022/02/10 23:08:46;;;;;;;15.45;9.83;;;;;;;6.74;61.89;97302.75;1658214;85;27370;-83
2022/02/10 23:11:14;;;;;;;14.98;9.85;;;;;;;6.74;61.91;97300.91;1658958;85;25855;-83
2022/02/10 23:13:46;;;;;;;14.53;9.08;;;;;;;6.73;61.93;97299.24;1658984;86;25727;-83
2022/02/10 23:16:14;;;;;;;17.67;9.80;;;;;;;6.72;61.94;97296.23;1658867;86;25821;-82
2022/02/10 23:18:42;;;;;;;12.55;8.60;;;;;;;6.71;61.97;97296.42;1657762;86;25844;-83
2022/02/10 23:21:13;;;;;;;14.58;9.53;;;;;;;6.69;61.97;97301.97;1657337;86;27473;-81
2022/02/10 23:23:45;;;;;;;13.78;8.78;;;;;;;6.67;62.00;97301.32;1656887;86;25737;-81
2022/02/10 23:26:17;;;;;;;17.05;9.70;;;;;;;6.66;62.03;97309.05;1658864;85;25705;-82
2022/02/10 23:28:48;;;;;;;16.97;10.13;;;;;;;6.65;62.06;97311.41;1657673;86;25966;-82
2022/02/10 23:31:17;;;;;;;14.28;9.98;;;;;;;6.65;62.04;97311.41;1655764;86;25288;-81
2022/02/10 23:33:49;;;;;;;12.58;8.63;;;;;;;6.65;62.09;97314.59;1657256;86;27628;-82
2022/02/10 23:38:56;;;;;;;14.73;9.23;;;;;;;6.63;62.14;97309.95;1649286;86;25693;-82
2022/02/10 23:44:02;;;;;;;;;;;;;;;6.62;62.13;97307.78;1675888;85;25894;-81
2022/02/10 23:46:29;;;;;;;14.07;9.23;;;;;;;6.60;62.16;97311.16;1644681;86;27458;-82
2022/02/10 23:48:57;;;;;;;13.10;9.00;;;;;;;6.61;62.23;97313.33;1659455;86;25736;-81
2022/02/10 23:51:28;;;;;;;11.55;8.40;;;;;;;6.60;62.24;97304.45;1657903;85;25843;-82
2022/02/10 23:53:52;;;;;;;15.65;10.10;;;;;;;6.60;62.21;97313.01;1658280;85;25750;-81
2022/02/10 23:56:24;;;;;;;15.38;9.93;;;;;;;6.59;62.25;97308.16;1673846;85;25755;-82
2022/02/10 23:58:57;;;;;;;11.90;9.40;;;;;;;6.59;62.26;97307.32;1665733;85;28432;-81
